Impacts TAF Board INFO
FOR SITUATIONAL AWARENESS. NOT TO BE USED FOR FLIGHT PLANNING PURPOSES.
IDs:

KSFO - San Francisco Intl, CA, US

Issued at 2105 UTC 24 Feb 2018
Updated at 2147 UTC 24 Feb 2018
Potential Impact None Slight Moderate High
Time<<25/10Z 25/11Z 25/12Z 25/13Z 25/14Z 25/15Z 25/16Z 25/17Z 25/18Z 25/19Z 25/20Z 25/21Z 25/22Z>>
Type PRVL PRVL PRVL PRVL PRVL PRVL PRVL PRVL PRVL PRVL PRVL PRVL PRVL
VIS >6 >6 >6 >6 >6 >6 >6 >6 >6 >6 >6 >6 >6
CIG -- -- -- -- -- -- -- -- -- -- -- -- --
Cover FEW FEW FEW FEW FEW FEW FEW FEW FEW FEW FEW FEW FEW
FltCat VFR VFR VFR VFR VFR VFR VFR VFR VFR VFR VFR VFR VFR
WX -- -- -- -- -- -- -- -- -- -- -- -- --
WDir 290 290 290 290 290 290 290 290 290 290 290 260 260
WSpd 8 8 8 8 8 8 8 8 8 8 8 15 15
WGst -- -- -- -- -- -- -- -- -- -- -- -- --

Raw TAF
KSFO 242105Z 2421/2524 03005KT P6SM FEW030 BKN200
  FM242200 28012KT P6SM FEW030 BKN200
  FM250000 28020G28KT P6SM FEW020 SCT100
  FM250400 28014KT P6SM SCT030
  FM251000 29008KT P6SM FEW020
  FM252100 26015KT P6SM FEW025


METAR Board
Radar Display
Forecast Discussion

FOR SITUATIONAL AWARENESS. NOT TO BE USED FOR FLIGHT PLANNING PURPOSES.